sensor_id;sensor_type;location;lat;lon;timestamp;pressure;altitude;pressure_sealevel;temperature;humidity
58373;BME280;44177;43.356;27.672;2022-12-11T00:01:58;96621.47;;;11.82;68.52
58373;BME280;44177;43.356;27.672;2022-12-11T00:04:24;96615.22;;;11.81;68.25
58373;BME280;44177;43.356;27.672;2022-12-11T00:06:51;96625.00;;;11.82;68.18
58373;BME280;44177;43.356;27.672;2022-12-11T00:09:17;96609.38;;;11.83;68.32
58373;BME280;44177;43.356;27.672;2022-12-11T00:11:42;96603.91;;;11.83;68.35
58373;BME280;44177;43.356;27.672;2022-12-11T00:14:08;96603.13;;;11.82;68.14
58373;BME280;44177;43.356;27.672;2022-12-11T00:16:34;96607.78;;;11.82;68.48
58373;BME280;44177;43.356;27.672;2022-12-11T00:18:59;96617.56;;;11.83;68.31
58373;BME280;44177;43.356;27.672;2022-12-11T00:21:25;96614.81;;;11.83;68.18
58373;BME280;44177;43.356;27.672;2022-12-11T00:23:51;96610.94;;;11.80;68.14
58373;BME280;44177;43.356;27.672;2022-12-11T00:26:17;96613.25;;;11.82;68.30
58373;BME280;44177;43.356;27.672;2022-12-11T00:28:43;96614.81;;;11.83;68.43
58373;BME280;44177;43.356;27.672;2022-12-11T00:31:12;96602.72;;;11.84;68.51
58373;BME280;44177;43.356;27.672;2022-12-11T00:33:39;96602.72;;;11.84;68.33
58373;BME280;44177;43.356;27.672;2022-12-11T00:36:13;96598.44;;;11.83;68.25
58373;BME280;44177;43.356;27.672;2022-12-11T00:38:39;96606.22;;;11.84;68.02
58373;BME280;44177;43.356;27.672;2022-12-11T00:41:05;96585.94;;;11.82;68.22
58373;BME280;44177;43.356;27.672;2022-12-11T00:43:30;96598.81;;;11.85;68.53
58373;BME280;44177;43.356;27.672;2022-12-11T00:45:56;96596.09;;;11.85;68.16
58373;BME280;44177;43.356;27.672;2022-12-11T00:48:22;96596.84;;;11.85;68.14
58373;BME280;44177;43.356;27.672;2022-12-11T00:50:47;96596.09;;;11.85;68.18
58373;BME280;44177;43.356;27.672;2022-12-11T00:53:13;96590.63;;;11.85;68.42
58373;BME280;44177;43.356;27.672;2022-12-11T00:55:40;96588.66;;;11.85;68.07
58373;BME280;44177;43.356;27.672;2022-12-11T00:58:06;96579.69;;;11.85;68.49
58373;BME280;44177;43.356;27.672;2022-12-11T01:00:32;96585.16;;;11.85;68.18
58373;BME280;44177;43.356;27.672;2022-12-11T01:02:58;96574.25;;;11.85;68.11
58373;BME280;44177;43.356;27.672;2022-12-11T01:05:24;96581.25;;;11.86;68.60
58373;BME280;44177;43.356;27.672;2022-12-11T01:07:49;96597.66;;;11.86;68.21
58373;BME280;44177;43.356;27.672;2022-12-11T01:10:15;96597.66;;;11.86;68.46
58373;BME280;44177;43.356;27.672;2022-12-11T01:12:56;96589.47;;;11.86;68.26
58373;BME280;44177;43.356;27.672;2022-12-11T01:15:25;96576.59;;;11.76;68.41
58373;BME280;44177;43.356;27.672;2022-12-11T01:17:51;96582.03;;;11.87;68.41
58373;BME280;44177;43.356;27.672;2022-12-11T01:20:18;96576.56;;;11.87;68.24
58373;BME280;44177;43.356;27.672;2022-12-11T01:22:44;96575.78;;;11.86;68.62
58373;BME280;44177;43.356;27.672;2022-12-11T01:25:09;96577.38;;;11.87;68.31
58373;BME280;44177;43.356;27.672;2022-12-11T01:27:36;96579.28;;;11.87;68.21
58373;BME280;44177;43.356;27.672;2022-12-11T01:30:04;96579.69;;;11.85;68.34
58373;BME280;44177;43.356;27.672;2022-12-11T01:32:29;96581.63;;;11.88;68.57
58373;BME280;44177;43.356;27.672;2022-12-11T01:34:55;96578.91;;;11.88;68.50
58373;BME280;44177;43.356;27.672;2022-12-11T01:37:20;96573.84;;;11.83;68.43
58373;BME280;44177;43.356;27.672;2022-12-11T01:39:46;96578.91;;;11.88;68.31
58373;BME280;44177;43.356;27.672;2022-12-11T01:42:16;96570.69;;;11.88;68.14
58373;BME280;44177;43.356;27.672;2022-12-11T01:47:08;96562.50;;;11.88;68.14
58373;BME280;44177;43.356;27.672;2022-12-11T01:49:33;96557.03;;;11.88;68.19
58373;BME280;44177;43.356;27.672;2022-12-11T01:52:08;96552.38;;;11.89;68.16
58373;BME280;44177;43.356;27.672;2022-12-11T01:54:34;96553.13;;;11.89;68.13
58373;BME280;44177;43.356;27.672;2022-12-11T01:57:03;96550.41;;;11.89;68.41
58373;BME280;44177;43.356;27.672;2022-12-11T01:59:31;96537.94;;;11.84;68.09
58373;BME280;44177;43.356;27.672;2022-12-11T02:02:06;96543.00;;;11.90;68.02
58373;BME280;44177;43.356;27.672;2022-12-11T02:04:34;96540.25;;;11.90;67.96
58373;BME280;44177;43.356;27.672;2022-12-11T02:07:00;96532.84;;;11.90;68.46
58373;BME280;44177;43.356;27.672;2022-12-11T02:09:32;96535.56;;;11.90;68.08
58373;BME280;44177;43.356;27.672;2022-12-11T02:20:43;96513.31;;;11.88;68.39
58373;BME280;44177;43.356;27.672;2022-12-11T02:28:28;96500.44;;;11.89;68.30
58373;BME280;44177;43.356;27.672;2022-12-11T02:31:06;96472.75;;;11.83;68.16
58373;BME280;44177;43.356;27.672;2022-12-11T02:33:51;96470.41;;;11.89;68.39
58373;BME280;44177;43.356;27.672;2022-12-11T02:36:22;96460.22;;;11.89;68.06
58373;BME280;44177;43.356;27.672;2022-12-11T02:38:50;96443.84;;;11.89;68.34
58373;BME280;44177;43.356;27.672;2022-12-11T02:41:19;96439.19;;;11.86;68.29
58373;BME280;44177;43.356;27.672;2022-12-11T02:43:47;96449.31;;;11.89;68.27
58373;BME280;44177;43.356;27.672;2022-12-11T02:46:16;96439.94;;;11.90;68.15
58373;BME280;44177;43.356;27.672;2022-12-11T02:48:44;96439.94;;;11.90;68.20
58373;BME280;44177;43.356;27.672;2022-12-11T02:51:13;96436.03;;;11.91;67.90
58373;BME280;44177;43.356;27.672;2022-12-11T02:53:41;96439.16;;;11.90;68.05
58373;BME280;44177;43.356;27.672;2022-12-11T02:56:21;96436.03;;;11.91;67.63
58373;BME280;44177;43.356;27.672;2022-12-11T02:58:52;96438.34;;;11.93;67.62
58373;BME280;44177;43.356;27.672;2022-12-11T03:01:20;96445.78;;;11.92;68.01
58373;BME280;44177;43.356;27.672;2022-12-11T03:03:46;96428.22;;;11.93;68.04
58373;BME280;44177;43.356;27.672;2022-12-11T03:06:15;96421.19;;;11.92;67.95
58373;BME280;44177;43.356;27.672;2022-12-11T03:08:43;96415.72;;;11.92;67.61
58373;BME280;44177;43.356;27.672;2022-12-11T03:11:10;96391.91;;;11.93;67.76
58373;BME280;44177;43.356;27.672;2022-12-11T03:13:36;96400.91;;;11.93;67.59
58373;BME280;44177;43.356;27.672;2022-12-11T03:16:20;96394.25;;;11.94;67.83
58373;BME280;44177;43.356;27.672;2022-12-11T03:22:08;96407.53;;;11.92;67.88
58373;BME280;44177;43.356;27.672;2022-12-11T03:24:40;96415.72;;;11.92;67.56
58373;BME280;44177;43.356;27.672;2022-12-11T03:30:07;96411.81;;;11.93;67.69
58373;BME280;44177;43.356;27.672;2022-12-11T03:32:46;96382.94;;;11.92;67.95
58373;BME280;44177;43.356;27.672;2022-12-11T03:35:39;96378.25;;;11.93;67.61
58373;BME280;44177;43.356;27.672;2022-12-11T03:38:10;96377.47;;;11.92;67.83
58373;BME280;44177;43.356;27.672;2022-12-11T03:40:40;96369.28;;;11.92;67.75
58373;BME280;44177;43.356;27.672;2022-12-11T03:43:08;96377.47;;;11.92;67.79
58373;BME280;44177;43.356;27.672;2022-12-11T03:45:37;96357.19;;;11.93;68.01
58373;BME280;44177;43.356;27.672;2022-12-11T03:48:03;96350.53;;;11.94;67.99
58373;BME280;44177;43.356;27.672;2022-12-11T03:50:30;96334.56;;;11.89;67.98
58373;BME280;44177;43.356;27.672;2022-12-11T03:52:57;96323.22;;;11.94;67.76
58373;BME280;44177;43.356;27.672;2022-12-11T03:55:23;96321.66;;;11.93;67.80
58373;BME280;44177;43.356;27.672;2022-12-11T03:57:50;96317.75;;;11.94;68.06
58373;BME280;44177;43.356;27.672;2022-12-11T04:00:18;96304.13;;;11.91;68.00
58373;BME280;44177;43.356;27.672;2022-12-11T04:02:45;96302.91;;;11.95;67.77
58373;BME280;44177;43.356;27.672;2022-12-11T04:05:31;96323.56;;;11.96;67.59
58373;BME280;44177;43.356;27.672;2022-12-11T04:07:56;96304.44;;;11.96;67.71
58373;BME280;44177;43.356;27.672;2022-12-11T04:10:21;96312.66;;;11.96;67.84
58373;BME280;44177;43.356;27.672;2022-12-11T04:12:47;96306.41;;;11.96;67.88
58373;BME280;44177;43.356;27.672;2022-12-11T04:15:12;96295.47;;;11.96;68.13
58373;BME280;44177;43.356;27.672;2022-12-11T04:17:38;96273.25;;;11.97;67.77
58373;BME280;44177;43.356;27.672;2022-12-11T04:20:22;96256.09;;;11.93;68.04
58373;BME280;44177;43.356;27.672;2022-12-11T04:23:11;96268.16;;;11.96;67.96
58373;BME280;44177;43.356;27.672;2022-12-11T04:26:07;96285.31;;;11.96;67.99
58373;BME280;44177;43.356;27.672;2022-12-11T04:28:34;96265.44;;;11.96;68.14
58373;BME280;44177;43.356;27.672;2022-12-11T04:31:00;96257.22;;;11.96;68.00
58373;BME280;44177;43.356;27.672;2022-12-11T04:33:26;96237.34;;;11.92;68.10
58373;BME280;44177;43.356;27.672;2022-12-11T04:35:52;96258.00;;;11.96;68.23
58373;BME280;44177;43.356;27.672;2022-12-11T04:38:17;96262.31;;;11.97;68.20
58373;BME280;44177;43.356;27.672;2022-12-11T04:40:43;96247.06;;;11.96;68.15
58373;BME280;44177;43.356;27.672;2022-12-11T04:43:08;96245.91;;;11.97;67.98
58373;BME280;44177;43.356;27.672;2022-12-11T04:45:33;96237.72;;;11.97;68.05
58373;BME280;44177;43.356;27.672;2022-12-11T04:47:59;96233.53;;;11.82;68.30
58373;BME280;44177;43.356;27.672;2022-12-11T04:50:25;96265.84;;;11.98;68.31
58373;BME280;44177;43.356;27.672;2022-12-11T04:52:54;96283.41;;;11.97;68.25
58373;BME280;44177;43.356;27.672;2022-12-11T04:55:20;96295.09;;;11.97;68.55
58373;BME280;44177;43.356;27.672;2022-12-11T04:57:45;96293.16;;;11.98;68.02
58373;BME280;44177;43.356;27.672;2022-12-11T05:00:11;96304.09;;;11.98;68.43
58373;BME280;44177;43.356;27.672;2022-12-11T05:02:38;96315.03;;;11.98;68.38
58373;BME280;44177;43.356;27.672;2022-12-11T05:05:05;96321.25;;;11.98;68.30
58373;BME280;44177;43.356;27.672;2022-12-11T05:07:31;96304.84;;;11.98;68.17
58373;BME280;44177;43.356;27.672;2022-12-11T05:09:57;96313.84;;;11.99;68.22
58373;BME280;44177;43.356;27.672;2022-12-11T05:12:22;96311.88;;;11.99;68.25
58373;BME280;44177;43.356;27.672;2022-12-11T05:14:53;96299.78;;;12.00;68.49
58373;BME280;44177;43.356;27.672;2022-12-11T05:17:20;96298.22;;;11.99;68.41
58373;BME280;44177;43.356;27.672;2022-12-11T05:19:47;96307.97;;;12.00;68.23
58373;BME280;44177;43.356;27.672;2022-12-11T05:22:13;96313.44;;;12.00;68.47
58373;BME280;44177;43.356;27.672;2022-12-11T05:24:39;96300.53;;;12.01;68.36
58373;BME280;44177;43.356;27.672;2022-12-11T05:27:04;96313.44;;;12.00;68.32
58373;BME280;44177;43.356;27.672;2022-12-11T05:29:30;96311.47;;;12.01;68.46
58373;BME280;44177;43.356;27.672;2022-12-11T05:31:55;96302.50;;;12.00;68.46
58373;BME280;44177;43.356;27.672;2022-12-11T05:34:21;96309.91;;;12.00;68.25
58373;BME280;44177;43.356;27.672;2022-12-11T05:36:46;96307.97;;;12.00;68.53
58373;BME280;44177;43.356;27.672;2022-12-11T05:39:12;96320.47;;;12.02;68.48
58373;BME280;44177;43.356;27.672;2022-12-11T05:41:37;96318.91;;;12.00;68.53
58373;BME280;44177;43.356;27.672;2022-12-11T05:44:03;96311.09;;;12.03;68.57
58373;BME280;44177;43.356;27.672;2022-12-11T05:46:29;96295.88;;;12.02;68.51
58373;BME280;44177;43.356;27.672;2022-12-11T05:48:59;96304.81;;;12.02;68.23
58373;BME280;44177;43.356;27.672;2022-12-11T05:51:26;96308.75;;;11.97;68.50
58373;BME280;44177;43.356;27.672;2022-12-11T05:53:53;96317.72;;;12.02;68.33
58373;BME280;44177;43.356;27.672;2022-12-11T05:56:24;96324.38;;;12.00;68.36
58373;BME280;44177;43.356;27.672;2022-12-11T05:58:51;96316.56;;;12.03;68.34
58373;BME280;44177;43.356;27.672;2022-12-11T06:01:21;96307.59;;;11.98;68.57
58373;BME280;44177;43.356;27.672;2022-12-11T06:03:47;96315.75;;;12.02;68.65
58373;BME280;44177;43.356;27.672;2022-12-11T06:06:13;96318.09;;;12.04;68.57
58373;BME280;44177;43.356;27.672;2022-12-11T06:08:39;96311.84;;;12.03;68.67
58373;BME280;44177;43.356;27.672;2022-12-11T06:11:05;96316.91;;;12.05;68.40
58373;BME280;44177;43.356;27.672;2022-12-11T06:13:31;96321.59;;;12.04;68.43
58373;BME280;44177;43.356;27.672;2022-12-11T06:16:03;96326.28;;;12.04;68.63
58373;BME280;44177;43.356;27.672;2022-12-11T06:18:30;96336.03;;;12.05;68.61
58373;BME280;44177;43.356;27.672;2022-12-11T06:20:55;96338.00;;;12.04;68.27
58373;BME280;44177;43.356;27.672;2022-12-11T06:23:21;96338.38;;;12.06;68.24
58373;BME280;44177;43.356;27.672;2022-12-11T06:25:47;96342.28;;;12.05;68.20
58373;BME280;44177;43.356;27.672;2022-12-11T06:28:12;96329.41;;;12.06;68.50
58373;BME280;44177;43.356;27.672;2022-12-11T06:30:38;96341.50;;;12.05;68.53
58373;BME280;44177;43.356;27.672;2022-12-11T06:33:04;96336.81;;;12.05;68.77
58373;BME280;44177;43.356;27.672;2022-12-11T06:35:29;96327.47;;;12.03;68.52
58373;BME280;44177;43.356;27.672;2022-12-11T06:37:55;96322.00;;;12.06;68.54
58373;BME280;44177;43.356;27.672;2022-12-11T06:40:20;96305.97;;;12.05;68.65
58373;BME280;44177;43.356;27.672;2022-12-11T06:42:46;96309.53;;;12.02;68.30
58373;BME280;44177;43.356;27.672;2022-12-11T06:45:12;96300.53;;;12.01;68.47
58373;BME280;44177;43.356;27.672;2022-12-11T06:47:37;96322.00;;;12.06;68.18
58373;BME280;44177;43.356;27.672;2022-12-11T06:50:03;96330.19;;;12.06;68.77
58373;BME280;44177;43.356;27.672;2022-12-11T06:52:28;96335.66;;;12.06;68.40
58373;BME280;44177;43.356;27.672;2022-12-11T06:54:54;96318.09;;;12.07;68.41
58373;BME280;44177;43.356;27.672;2022-12-11T06:57:21;96329.00;;;12.07;68.62
58373;BME280;44177;43.356;27.672;2022-12-11T06:59:46;96317.31;;;12.03;68.36
58373;BME280;44177;43.356;27.672;2022-12-11T07:02:13;96321.56;;;12.08;68.70
58373;BME280;44177;43.356;27.672;2022-12-11T07:04:39;96320.41;;;12.09;68.63
58373;BME280;44177;43.356;27.672;2022-12-11T07:07:05;96333.28;;;12.08;68.32
58373;BME280;44177;43.356;27.672;2022-12-11T07:09:30;96341.47;;;12.08;68.25
58373;BME280;44177;43.356;27.672;2022-12-11T07:11:56;96345.00;;;12.09;68.66
58373;BME280;44177;43.356;27.672;2022-12-11T07:14:21;96346.19;;;12.08;68.64
58373;BME280;44177;43.356;27.672;2022-12-11T07:16:47;96347.72;;;12.09;68.88
58373;BME280;44177;43.356;27.672;2022-12-11T07:19:12;96353.19;;;12.09;68.48
58373;BME280;44177;43.356;27.672;2022-12-11T07:21:38;96342.28;;;12.09;68.68
58373;BME280;44177;43.356;27.672;2022-12-11T07:24:03;96336.81;;;12.09;68.67
58373;BME280;44177;43.356;27.672;2022-12-11T07:26:29;96345.38;;;12.11;68.30
58373;BME280;44177;43.356;27.672;2022-12-11T07:28:58;96357.53;;;12.06;68.30
58373;BME280;44177;43.356;27.672;2022-12-11T07:31:26;96350.06;;;12.10;68.57
58373;BME280;44177;43.356;27.672;2022-12-11T07:33:53;96340.69;;;12.11;68.51
58373;BME280;44177;43.356;27.672;2022-12-11T07:36:19;96348.13;;;12.11;68.43
58373;BME280;44177;43.356;27.672;2022-12-11T07:38:44;96345.38;;;12.11;68.28
58373;BME280;44177;43.356;27.672;2022-12-11T07:41:11;96370.75;;;12.11;68.48
58373;BME280;44177;43.356;27.672;2022-12-11T07:43:37;96370.34;;;12.13;68.69
58373;BME280;44177;43.356;27.672;2022-12-11T07:46:05;96369.56;;;12.12;68.74
58373;BME280;44177;43.356;27.672;2022-12-11T07:48:33;96354.72;;;12.13;68.51
58373;BME280;44177;43.356;27.672;2022-12-11T07:53:39;96350.03;;;12.14;68.62
58373;BME280;44177;43.356;27.672;2022-12-11T07:56:05;96355.09;;;12.15;68.53
58373;BME280;44177;43.356;27.672;2022-12-11T07:58:31;96332.91;;;12.10;68.31
58373;BME280;44177;43.356;27.672;2022-12-11T08:00:57;96327.00;;;12.15;68.50
58373;BME280;44177;43.356;27.672;2022-12-11T08:03:23;96323.50;;;12.14;68.50
58373;BME280;44177;43.356;27.672;2022-12-11T08:05:49;96329.72;;;12.15;68.73
58373;BME280;44177;43.356;27.672;2022-12-11T08:08:16;96320.34;;;12.16;68.53
58373;BME280;44177;43.356;27.672;2022-12-11T08:10:42;96330.09;;;12.17;68.28
58373;BME280;44177;43.356;27.672;2022-12-11T08:13:07;96321.91;;;12.17;68.20
58373;BME280;44177;43.356;27.672;2022-12-11T08:15:33;96333.59;;;12.18;68.42
58373;BME280;44177;43.356;27.672;2022-12-11T08:17:58;96335.94;;;12.19;68.37
58373;BME280;44177;43.356;27.672;2022-12-11T08:20:24;96338.69;;;12.19;68.43
58373;BME280;44177;43.356;27.672;2022-12-11T08:22:49;96344.16;;;12.19;68.24
58373;BME280;44177;43.356;27.672;2022-12-11T08:25:15;96354.69;;;12.21;68.20
58373;BME280;44177;43.356;27.672;2022-12-11T08:27:40;96345.31;;;12.22;68.09
58373;BME280;44177;43.356;27.672;2022-12-11T08:30:07;96352.31;;;12.23;68.20
58373;BME280;44177;43.356;27.672;2022-12-11T08:32:33;96346.84;;;12.23;68.28
58373;BME280;44177;43.356;27.672;2022-12-11T08:34:58;96350.75;;;12.25;68.07
58373;BME280;44177;43.356;27.672;2022-12-11T08:37:24;96335.50;;;12.24;68.39
58373;BME280;44177;43.356;27.672;2022-12-11T08:39:49;96346.44;;;12.24;68.15
58373;BME280;44177;43.356;27.672;2022-12-11T08:42:15;96345.28;;;12.25;68.37
58373;BME280;44177;43.356;27.672;2022-12-11T08:44:40;96346.03;;;12.26;68.36
58373;BME280;44177;43.356;27.672;2022-12-11T08:47:06;96328.47;;;12.27;68.03
58373;BME280;44177;43.356;27.672;2022-12-11T08:49:34;96325.66;;;12.34;68.05
58373;BME280;44177;43.356;27.672;2022-12-11T08:52:00;96306.13;;;12.32;67.91
58373;BME280;44177;43.356;27.672;2022-12-11T08:54:26;96321.72;;;12.39;67.75
58373;BME280;44177;43.356;27.672;2022-12-11T08:56:52;96316.16;;;12.50;67.57
58373;BME280;44177;43.356;27.672;2022-12-11T08:59:17;96319.53;;;12.64;66.96
58373;BME280;44177;43.356;27.672;2022-12-11T09:01:43;96314.84;;;12.61;66.72
58373;BME280;44177;43.356;27.672;2022-12-11T09:04:08;96296.47;;;12.66;66.90
58373;BME280;44177;43.356;27.672;2022-12-11T09:06:34;96290.22;;;12.65;66.52
58373;BME280;44177;43.356;27.672;2022-12-11T09:09:00;96299.28;;;12.58;66.98
58373;BME280;44177;43.356;27.672;2022-12-11T09:11:28;96301.63;;;12.56;66.82
58373;BME280;44177;43.356;27.672;2022-12-11T09:13:54;96299.31;;;12.51;67.10
58373;BME280;44177;43.356;27.672;2022-12-11T09:16:22;96296.19;;;12.53;66.92
58373;BME280;44177;43.356;27.672;2022-12-11T09:18:50;96300.53;;;12.50;67.09
58373;BME280;44177;43.356;27.672;2022-12-11T09:21:18;96289.94;;;12.52;67.26
58373;BME280;44177;43.356;27.672;2022-12-11T09:23:44;96281.72;;;12.52;67.08
58373;BME280;44177;43.356;27.672;2022-12-11T09:26:13;96268.41;;;12.58;67.39
58373;BME280;44177;43.356;27.672;2022-12-11T09:28:40;96263.22;;;12.67;66.79
58373;BME280;44177;43.356;27.672;2022-12-11T09:31:10;96276.06;;;12.74;66.52
58373;BME280;44177;43.356;27.672;2022-12-11T09:33:36;96277.53;;;12.78;66.54
58373;BME280;44177;43.356;27.672;2022-12-11T09:36:02;96259.59;;;12.77;66.66
58373;BME280;44177;43.356;27.672;2022-12-11T09:38:29;96253.81;;;12.72;66.31
58373;BME280;44177;43.356;27.672;2022-12-11T09:40:55;96256.91;;;12.74;66.51
58373;BME280;44177;43.356;27.672;2022-12-11T09:43:37;96260.41;;;12.74;66.64
58373;BME280;44177;43.356;27.672;2022-12-11T09:46:09;96269.84;;;12.70;66.48
58373;BME280;44177;43.356;27.672;2022-12-11T09:48:37;96271.03;;;12.69;66.46
58373;BME280;44177;43.356;27.672;2022-12-11T09:53:38;96264.38;;;12.70;66.57
58373;BME280;44177;43.356;27.672;2022-12-11T09:56:20;96265.94;;;12.71;66.98
58373;BME280;44177;43.356;27.672;2022-12-11T10:01:38;96269.34;;;12.78;67.08
58373;BME280;44177;43.356;27.672;2022-12-11T10:09:49;96279.91;;;12.80;66.72
58373;BME280;44177;43.356;27.672;2022-12-11T10:12:32;96286.50;;;12.83;66.74
58373;BME280;44177;43.356;27.672;2022-12-11T10:17:45;96287.00;;;12.74;66.75
58373;BME280;44177;43.356;27.672;2022-12-11T10:20:20;96292.50;;;12.70;66.88
58373;BME280;44177;43.356;27.672;2022-12-11T10:22:48;96291.72;;;12.70;67.05
58373;BME280;44177;43.356;27.672;2022-12-11T10:25:26;96284.66;;;12.72;67.29
58373;BME280;44177;43.356;27.672;2022-12-11T10:27:53;96291.56;;;12.84;66.87
58373;BME280;44177;43.356;27.672;2022-12-11T10:35:34;96292.41;;;12.81;67.04
58373;BME280;44177;43.356;27.672;2022-12-11T10:40:49;96275.28;;;12.73;67.04
58373;BME280;44177;43.356;27.672;2022-12-11T10:43:14;96269.78;;;12.73;67.20
58373;BME280;44177;43.356;27.672;2022-12-11T10:45:49;96266.69;;;12.71;66.99
58373;BME280;44177;43.356;27.672;2022-12-11T10:48:15;96260.53;;;12.63;67.34
58373;BME280;44177;43.356;27.672;2022-12-11T10:50:43;96269.47;;;12.68;67.26
58373;BME280;44177;43.356;27.672;2022-12-11T10:53:22;96275.34;;;12.66;67.38
58373;BME280;44177;43.356;27.672;2022-12-11T10:55:48;96274.59;;;12.66;67.57
58373;BME280;44177;43.356;27.672;2022-12-11T10:58:22;96266.38;;;12.66;67.32
58373;BME280;44177;43.356;27.672;2022-12-11T11:03:29;96234.34;;;12.62;67.29
58373;BME280;44177;43.356;27.672;2022-12-11T11:06:03;96239.41;;;12.64;67.45
58373;BME280;44177;43.356;27.672;2022-12-11T11:08:38;96239.41;;;12.64;67.46
58373;BME280;44177;43.356;27.672;2022-12-11T11:11:04;96237.06;;;12.66;67.57
58373;BME280;44177;43.356;27.672;2022-12-11T11:13:30;96240.22;;;12.64;67.63
58373;BME280;44177;43.356;27.672;2022-12-11T11:16:11;96248.41;;;12.64;67.48
58373;BME280;44177;43.356;27.672;2022-12-11T11:18:38;96256.63;;;12.64;67.32
58373;BME280;44177;43.356;27.672;2022-12-11T11:21:05;96258.94;;;12.66;67.23
58373;BME280;44177;43.356;27.672;2022-12-11T11:23:33;96259.72;;;12.67;67.15
58373;BME280;44177;43.356;27.672;2022-12-11T11:26:05;96265.19;;;12.67;67.30
58373;BME280;44177;43.356;27.672;2022-12-11T11:28:40;96267.94;;;12.67;67.48
58373;BME280;44177;43.356;27.672;2022-12-11T11:31:13;96271.06;;;12.65;67.51
58373;BME280;44177;43.356;27.672;2022-12-11T11:33:59;96275.75;;;12.64;67.36
58373;BME280;44177;43.356;27.672;2022-12-11T11:36:29;96273.03;;;12.64;67.65
58373;BME280;44177;43.356;27.672;2022-12-11T11:43:59;96279.31;;;12.61;67.53
58373;BME280;44177;43.356;27.672;2022-12-11T11:46:41;96287.50;;;12.61;67.38
58373;BME280;44177;43.356;27.672;2022-12-11T11:49:19;96268.78;;;12.60;67.32
58373;BME280;44177;43.356;27.672;2022-12-11T11:52:07;96268.78;;;12.60;67.73
58373;BME280;44177;43.356;27.672;2022-12-11T11:55:07;96267.97;;;12.59;67.63
58373;BME280;44177;43.356;27.672;2022-12-11T11:57:47;96261.34;;;12.60;67.56
58373;BME280;44177;43.356;27.672;2022-12-11T12:00:22;96223.03;;;12.60;67.83
58373;BME280;44177;43.356;27.672;2022-12-11T12:02:52;96223.03;;;12.60;67.94
58373;BME280;44177;43.356;27.672;2022-12-11T12:05:24;96212.91;;;12.61;67.63
58373;BME280;44177;43.356;27.672;2022-12-11T12:13:42;96225.78;;;12.60;68.00
58373;BME280;44177;43.356;27.672;2022-12-11T12:19:19;96250.41;;;12.60;67.45
58373;BME280;44177;43.356;27.672;2022-12-11T12:21:51;96253.53;;;12.59;67.93
58373;BME280;44177;43.356;27.672;2022-12-11T12:27:31;96242.19;;;12.60;67.62
58373;BME280;44177;43.356;27.672;2022-12-11T12:30:17;96226.59;;;12.57;67.65
58373;BME280;44177;43.356;27.672;2022-12-11T12:36:18;96223.84;;;12.61;67.88
58373;BME280;44177;43.356;27.672;2022-12-11T12:41:28;96216.38;;;12.61;68.17
58373;BME280;44177;43.356;27.672;2022-12-11T12:49:00;96230.44;;;12.63;67.96
58373;BME280;44177;43.356;27.672;2022-12-11T12:51:27;96226.53;;;12.64;68.05
58373;BME280;44177;43.356;27.672;2022-12-11T12:53:59;96232.00;;;12.64;67.66
58373;BME280;44177;43.356;27.672;2022-12-11T12:56:28;96228.88;;;12.62;67.98
58373;BME280;44177;43.356;27.672;2022-12-11T12:58:55;96227.72;;;12.63;67.56
58373;BME280;44177;43.356;27.672;2022-12-11T13:01:22;96219.88;;;12.66;67.95
58373;BME280;44177;43.356;27.672;2022-12-11T13:04:02;96216.81;;;12.60;67.88
58373;BME280;44177;43.356;27.672;2022-12-11T13:09:20;96242.16;;;12.64;68.02
58373;BME280;44177;43.356;27.672;2022-12-11T13:11:47;96242.16;;;12.64;67.96
58373;BME280;44177;43.356;27.672;2022-12-11T13:16:45;96241.75;;;12.66;67.57
58373;BME280;44177;43.356;27.672;2022-12-11T13:22:23;96258.94;;;12.66;67.84
58373;BME280;44177;43.356;27.672;2022-12-11T13:27:39;96245.25;;;12.66;68.04
58373;BME280;44177;43.356;27.672;2022-12-11T13:30:27;96240.22;;;12.64;67.66
58373;BME280;44177;43.356;27.672;2022-12-11T13:33:05;96236.28;;;12.66;67.95
58373;BME280;44177;43.356;27.672;2022-12-11T13:35:32;96226.97;;;12.59;68.03
58373;BME280;44177;43.356;27.672;2022-12-11T13:38:18;96240.22;;;12.64;68.28
58373;BME280;44177;43.356;27.672;2022-12-11T13:40:48;96234.78;;;12.61;67.90
58373;BME280;44177;43.356;27.672;2022-12-11T13:43:19;96244.13;;;12.63;68.18
58373;BME280;44177;43.356;27.672;2022-12-11T13:45:51;96243.31;;;12.63;67.88
58373;BME280;44177;43.356;27.672;2022-12-11T13:48:26;96255.06;;;12.63;67.83
58373;BME280;44177;43.356;27.672;2022-12-11T13:50:53;96250.78;;;12.62;67.91
58373;BME280;44177;43.356;27.672;2022-12-11T13:53:19;96254.28;;;12.63;67.82
58373;BME280;44177;43.356;27.672;2022-12-11T13:55:46;96251.53;;;12.63;68.29
58373;BME280;44177;43.356;27.672;2022-12-11T13:58:20;96256.25;;;12.62;68.41
58373;BME280;44177;43.356;27.672;2022-12-11T14:01:09;96244.13;;;12.63;68.29
58373;BME280;44177;43.356;27.672;2022-12-11T14:03:41;96251.53;;;12.63;68.12
58373;BME280;44177;43.356;27.672;2022-12-11T14:06:11;96250.78;;;12.62;68.08
58373;BME280;44177;43.356;27.672;2022-12-11T14:08:38;96259.75;;;12.63;68.10
58373;BME280;44177;43.356;27.672;2022-12-11T14:11:06;96266.00;;;12.63;68.18
58373;BME280;44177;43.356;27.672;2022-12-11T14:13:34;96267.97;;;12.59;68.10
58373;BME280;44177;43.356;27.672;2022-12-11T14:16:00;96271.47;;;12.63;68.19
58373;BME280;44177;43.356;27.672;2022-12-11T14:18:29;96262.88;;;12.61;68.03
58373;BME280;44177;43.356;27.672;2022-12-11T14:21:01;96265.22;;;12.63;68.10
58373;BME280;44177;43.356;27.672;2022-12-11T14:23:32;96264.44;;;12.62;67.95
58373;BME280;44177;43.356;27.672;2022-12-11T14:26:16;96258.22;;;12.62;68.22
58373;BME280;44177;43.356;27.672;2022-12-11T14:28:42;96273.88;;;12.58;67.97